EWG7ER EDDH-LEPA
Flight info
| Callsign | EWG7ER |
|---|---|
| Flight time | 2h 17m |
| Altitude | 36000 |
| Route | HABFU1G/33 HABFU Y348 MAWEQ DCT ASBON/N0438F350 DCT ELVET DCT OBORN DCT MOROK/N0439F370 DCT GILIR DCT GEVEA DCT INCUS DCT BALSI DCT RETNO DCT TUPOX DCT MTG DCT DIVKO DCT VATIR DCT PIVUS DCT BODEQ DCT VERSO L129 LUNIK |
| Aircraft | A320/M-SDE3FGHIRWY/LB1 |
Departure
| Time | 2026-04-21 12:22 |
|---|---|
| Airport | Hamburg Helmut Schmidt Airport (EDDH) |
Arrival
| Time | 2026-04-21 14:39 |
|---|---|
| Airport | Palma de Mallorca Airport (LEPA) |
| Time | Latitude | Longitude | Altitude | Speed | Heading |
|---|---|---|---|---|---|
| 2026-04-21 11:48 | 53.63206 | 10.00369 | 49 ft | 0 kts | 86° |
| 2026-04-21 12:12 | 53.63206 | 10.00357 | 48 ft | 4 kts | 85° |
| 2026-04-21 12:12 | 53.63203 | 10.00312 | 48 ft | 4 kts | 83° |
| 2026-04-21 12:12 | 53.63200 | 10.00266 | 48 ft | 4 kts | 84° |
| 2026-04-21 12:12 | 53.63198 | 10.00221 | 48 ft | 4 kts | 94° |
| 2026-04-21 12:13 | 53.63204 | 10.00184 | 48 ft | 4 kts | 150° |
| 2026-04-21 12:13 | 53.63209 | 10.00180 | 48 ft | 0 kts | 176° |
| 2026-04-21 12:16 | 53.63196 | 10.00181 | 44 ft | 5 kts | 176° |
| 2026-04-21 12:16 | 53.63153 | 10.00186 | 48 ft | 7 kts | 175° |
| 2026-04-21 12:16 | 53.63092 | 10.00192 | 48 ft | 10 kts | 182° |
| 2026-04-21 12:17 | 53.63032 | 10.00144 | 48 ft | 10 kts | 212° |
| 2026-04-21 12:17 | 53.62979 | 10.00087 | 48 ft | 8 kts | 213° |
| 2026-04-21 12:17 | 53.62931 | 10.00021 | 48 ft | 10 kts | 231° |
| 2026-04-21 12:17 | 53.62892 | 9.99898 | 44 ft | 14 kts | 243° |
| 2026-04-21 12:18 | 53.62858 | 9.99783 | 44 ft | 7 kts | 250° |
| 2026-04-21 12:18 | 53.62883 | 9.99732 | 45 ft | 0 kts | 332° |
| 2026-04-21 12:21 | 53.62888 | 9.99728 | 45 ft | 11 kts | 332° |
| 2026-04-21 12:21 | 53.63206 | 9.99454 | 47 ft | 87 kts | 333° |
| 2026-04-21 12:21 | 53.63924 | 9.98833 | 50 ft | 143 kts | 333° |
| 2026-04-21 12:22 | 53.64927 | 9.97993 | 319 ft | 165 kts | 339° |
| 2026-04-21 12:22 | 53.65936 | 9.97115 | 1064 ft | 163 kts | 338° |
| 2026-04-21 12:22 | 53.66958 | 9.96231 | 1655 ft | 174 kts | 338° |
| 2026-04-21 12:22 | 53.68111 | 9.95270 | 1974 ft | 195 kts | 337° |
| 2026-04-21 12:23 | 53.69373 | 9.94194 | 2465 ft | 210 kts | 337° |
| 2026-04-21 12:23 | 53.70651 | 9.92931 | 3187 ft | 217 kts | 321° |
| 2026-04-21 12:23 | 53.71417 | 9.90690 | 3886 ft | 231 kts | 282° |
| 2026-04-21 12:23 | 53.71281 | 9.87874 | 4268 ft | 256 kts | 255° |
| 2026-04-21 12:24 | 53.70732 | 9.84882 | 4768 ft | 275 kts | 251° |
| 2026-04-21 12:24 | 53.70092 | 9.81795 | 5576 ft | 282 kts | 250° |
| 2026-04-21 12:24 | 53.69428 | 9.78660 | 6416 ft | 286 kts | 250° |
| 2026-04-21 12:24 | 53.68758 | 9.75469 | 7237 ft | 290 kts | 251° |
| 2026-04-21 12:25 | 53.68093 | 9.72235 | 8043 ft | 294 kts | 251° |
| 2026-04-21 12:25 | 53.67415 | 9.68959 | 8844 ft | 298 kts | 247° |
| 2026-04-21 12:25 | 53.66315 | 9.66076 | 9589 ft | 300 kts | 223° |
| 2026-04-21 12:25 | 53.64577 | 9.64056 | 10349 ft | 299 kts | 200° |
| 2026-04-21 12:26 | 53.62614 | 9.62694 | 10782 ft | 315 kts | 198° |
| 2026-04-21 12:26 | 53.60503 | 9.61269 | 11016 ft | 337 kts | 198° |
| 2026-04-21 12:26 | 53.58295 | 9.59774 | 11578 ft | 345 kts | 199° |
| 2026-04-21 12:26 | 53.56067 | 9.58248 | 12249 ft | 350 kts | 199° |
| 2026-04-21 12:27 | 53.53788 | 9.56672 | 12949 ft | 354 kts | 199° |
| 2026-04-21 12:27 | 53.51498 | 9.55091 | 13641 ft | 358 kts | 199° |
| 2026-04-21 12:27 | 53.49179 | 9.53499 | 14299 ft | 362 kts | 199° |
| 2026-04-21 12:27 | 53.46834 | 9.51890 | 14892 ft | 366 kts | 199° |
| 2026-04-21 12:28 | 53.44468 | 9.50266 | 15494 ft | 369 kts | 199° |
| 2026-04-21 12:28 | 53.42082 | 9.48634 | 16076 ft | 372 kts | 199° |
| 2026-04-21 12:28 | 53.39672 | 9.46989 | 16681 ft | 376 kts | 198° |
| 2026-04-21 12:28 | 53.37239 | 9.45335 | 17279 ft | 379 kts | 198° |
| 2026-04-21 12:29 | 53.34787 | 9.43671 | 17862 ft | 382 kts | 198° |
| 2026-04-21 12:29 | 53.32312 | 9.41991 | 18444 ft | 386 kts | 198° |
| 2026-04-21 12:29 | 53.29827 | 9.40303 | 18960 ft | 389 kts | 198° |
| 2026-04-21 12:29 | 53.27310 | 9.38594 | 19463 ft | 392 kts | 198° |
| 2026-04-21 12:30 | 53.24777 | 9.36877 | 19958 ft | 395 kts | 198° |
| 2026-04-21 12:30 | 53.22221 | 9.35147 | 20458 ft | 398 kts | 198° |
| 2026-04-21 12:30 | 53.19644 | 9.33407 | 20955 ft | 401 kts | 198° |
| 2026-04-21 12:30 | 53.17056 | 9.31663 | 21422 ft | 403 kts | 198° |
| 2026-04-21 12:31 | 53.14443 | 9.29905 | 21896 ft | 406 kts | 198° |
| 2026-04-21 12:31 | 53.11817 | 9.28137 | 22368 ft | 409 kts | 198° |
| 2026-04-21 12:31 | 53.09169 | 9.26355 | 22839 ft | 411 kts | 198° |
| 2026-04-21 12:31 | 53.06524 | 9.24574 | 23290 ft | 414 kts | 198° |
| 2026-04-21 12:32 | 53.03826 | 9.22760 | 23724 ft | 417 kts | 198° |
| 2026-04-21 12:32 | 53.01126 | 9.20943 | 24126 ft | 420 kts | 197° |
| 2026-04-21 12:32 | 52.98411 | 9.19127 | 24495 ft | 422 kts | 197° |
| 2026-04-21 12:32 | 52.95685 | 9.17304 | 24875 ft | 424 kts | 198° |
| 2026-04-21 12:33 | 52.93023 | 9.15110 | 25237 ft | 429 kts | 204° |
| 2026-04-21 12:33 | 52.90380 | 9.12783 | 25586 ft | 431 kts | 204° |
| 2026-04-21 12:33 | 52.87725 | 9.10450 | 25970 ft | 433 kts | 203° |
| 2026-04-21 12:33 | 52.85059 | 9.08119 | 26327 ft | 435 kts | 203° |
| 2026-04-21 12:34 | 52.82375 | 9.05779 | 26680 ft | 437 kts | 203° |
| 2026-04-21 12:34 | 52.79685 | 9.03438 | 27021 ft | 438 kts | 203° |
| 2026-04-21 12:34 | 52.76980 | 9.01082 | 27361 ft | 440 kts | 203° |
| 2026-04-21 12:34 | 52.74266 | 8.98715 | 27714 ft | 442 kts | 203° |
| 2026-04-21 12:35 | 52.71543 | 8.96340 | 28046 ft | 444 kts | 203° |
| 2026-04-21 12:35 | 52.68804 | 8.93954 | 28379 ft | 446 kts | 203° |
| 2026-04-21 12:35 | 52.66051 | 8.91561 | 28747 ft | 448 kts | 203° |
| 2026-04-21 12:35 | 52.63285 | 8.89164 | 29046 ft | 450 kts | 203° |
| 2026-04-21 12:36 | 52.60541 | 8.86792 | 29343 ft | 453 kts | 203° |
| 2026-04-21 12:36 | 52.57747 | 8.84379 | 29655 ft | 454 kts | 203° |
| 2026-04-21 12:36 | 52.54944 | 8.81960 | 29959 ft | 456 kts | 203° |
| 2026-04-21 12:36 | 52.52092 | 8.79497 | 30268 ft | 458 kts | 203° |
| 2026-04-21 12:37 | 52.49260 | 8.77055 | 30527 ft | 460 kts | 203° |
| 2026-04-21 12:37 | 52.46421 | 8.74610 | 30758 ft | 461 kts | 203° |
| 2026-04-21 12:37 | 52.43614 | 8.72193 | 30995 ft | 463 kts | 204° |
| 2026-04-21 12:37 | 52.40753 | 8.69739 | 31219 ft | 465 kts | 204° |
| 2026-04-21 12:38 | 52.37900 | 8.67296 | 31530 ft | 464 kts | 204° |
| 2026-04-21 12:38 | 52.35032 | 8.64842 | 31850 ft | 463 kts | 204° |
| 2026-04-21 12:38 | 52.32140 | 8.62368 | 32159 ft | 463 kts | 205° |
| 2026-04-21 12:38 | 52.29325 | 8.59964 | 32460 ft | 463 kts | 205° |
| 2026-04-21 12:39 | 52.26460 | 8.57570 | 32762 ft | 462 kts | 203° |
| 2026-04-21 12:39 | 52.23546 | 8.55361 | 33068 ft | 461 kts | 201° |
| 2026-04-21 12:39 | 52.20599 | 8.53319 | 33381 ft | 460 kts | 200° |
| 2026-04-21 12:39 | 52.17625 | 8.51365 | 33641 ft | 461 kts | 200° |
| 2026-04-21 12:40 | 52.14642 | 8.49436 | 33902 ft | 462 kts | 200° |
| 2026-04-21 12:40 | 52.11656 | 8.47490 | 34184 ft | 462 kts | 200° |
| 2026-04-21 12:40 | 52.08683 | 8.45517 | 34451 ft | 462 kts | 201° |
| 2026-04-21 12:40 | 52.05717 | 8.43512 | 34683 ft | 462 kts | 201° |
| 2026-04-21 12:41 | 52.02759 | 8.41489 | 34922 ft | 462 kts | 202° |
| 2026-04-21 12:41 | 51.99799 | 8.39453 | 35147 ft | 462 kts | 202° |
| 2026-04-21 12:41 | 51.96839 | 8.37412 | 35278 ft | 462 kts | 202° |
| 2026-04-21 12:42 | 51.90921 | 8.33359 | 35312 ft | 461 kts | 202° |
| 2026-04-21 12:42 | 51.85003 | 8.29348 | 35296 ft | 461 kts | 202° |
| 2026-04-21 12:43 | 51.79081 | 8.25365 | 35305 ft | 461 kts | 202° |
| 2026-04-21 12:43 | 51.73164 | 8.21389 | 35303 ft | 461 kts | 202° |
| 2026-04-21 12:44 | 51.67245 | 8.17408 | 35299 ft | 461 kts | 202° |
| 2026-04-21 12:44 | 51.61328 | 8.13452 | 35291 ft | 461 kts | 202° |
| 2026-04-21 12:45 | 51.55412 | 8.09508 | 35296 ft | 458 kts | 202° |
| 2026-04-21 12:45 | 51.49555 | 8.05608 | 35291 ft | 456 kts | 203° |
| 2026-04-21 12:46 | 51.43692 | 8.01712 | 35288 ft | 456 kts | 203° |
| 2026-04-21 12:46 | 51.37833 | 7.97828 | 35288 ft | 456 kts | 203° |
| 2026-04-21 12:47 | 51.31972 | 7.93962 | 35279 ft | 456 kts | 203° |
| 2026-04-21 12:47 | 51.26111 | 7.90113 | 35278 ft | 456 kts | 203° |
| 2026-04-21 12:48 | 51.20244 | 7.86267 | 35276 ft | 455 kts | 203° |
| 2026-04-21 12:48 | 51.14386 | 7.82422 | 35266 ft | 455 kts | 203° |
| 2026-04-21 12:49 | 51.08530 | 7.78600 | 35264 ft | 455 kts | 203° |
| 2026-04-21 12:49 | 51.02674 | 7.74787 | 35263 ft | 454 kts | 204° |
| 2026-04-21 12:50 | 50.96831 | 7.70993 | 35265 ft | 453 kts | 204° |
| 2026-04-21 12:50 | 50.90993 | 7.67219 | 35264 ft | 453 kts | 204° |
| 2026-04-21 12:51 | 50.85160 | 7.63458 | 35260 ft | 453 kts | 204° |
| 2026-04-21 12:51 | 50.79329 | 7.59701 | 35251 ft | 452 kts | 204° |
| 2026-04-21 12:52 | 50.73523 | 7.56018 | 35249 ft | 453 kts | 200° |
| 2026-04-21 12:52 | 50.67360 | 7.53924 | 35244 ft | 454 kts | 190° |
| 2026-04-21 12:53 | 50.61123 | 7.52330 | 35236 ft | 454 kts | 191° |
| 2026-04-21 12:53 | 50.54881 | 7.50735 | 35235 ft | 455 kts | 191° |
| 2026-04-21 12:54 | 50.48634 | 7.49135 | 35233 ft | 455 kts | 191° |
| 2026-04-21 12:54 | 50.42399 | 7.47539 | 35230 ft | 455 kts | 191° |
| 2026-04-21 12:55 | 50.36137 | 7.45945 | 35221 ft | 455 kts | 191° |
| 2026-04-21 12:55 | 50.29880 | 7.44346 | 35223 ft | 455 kts | 191° |
| 2026-04-21 12:56 | 50.23627 | 7.42759 | 35220 ft | 455 kts | 191° |
| 2026-04-21 12:56 | 50.17369 | 7.41186 | 35212 ft | 456 kts | 191° |
| 2026-04-21 12:57 | 50.11106 | 7.39606 | 35214 ft | 456 kts | 191° |
| 2026-04-21 12:57 | 50.04838 | 7.38037 | 35218 ft | 456 kts | 191° |
| 2026-04-21 12:58 | 49.98570 | 7.36475 | 35226 ft | 456 kts | 191° |
| 2026-04-21 12:58 | 49.92299 | 7.34894 | 35215 ft | 456 kts | 192° |
| 2026-04-21 12:59 | 49.86026 | 7.33323 | 35206 ft | 457 kts | 192° |
| 2026-04-21 12:59 | 49.79746 | 7.31772 | 35199 ft | 457 kts | 192° |
| 2026-04-21 13:00 | 49.74525 | 7.30495 | 35202 ft | 457 kts | 192° |
| 2026-04-21 13:00 | 49.68205 | 7.28940 | 35188 ft | 457 kts | 192° |
| 2026-04-21 13:01 | 49.61927 | 7.27376 | 35191 ft | 457 kts | 192° |
| 2026-04-21 13:01 | 49.55647 | 7.25809 | 35190 ft | 457 kts | 192° |
| 2026-04-21 13:02 | 49.49369 | 7.24270 | 35184 ft | 457 kts | 193° |
| 2026-04-21 13:02 | 49.39952 | 7.21964 | 35186 ft | 457 kts | 193° |
| 2026-04-21 13:03 | 49.33717 | 7.20443 | 35185 ft | 457 kts | 193° |
| 2026-04-21 13:03 | 49.27399 | 7.18910 | 35163 ft | 457 kts | 193° |
| 2026-04-21 13:04 | 49.21165 | 7.17411 | 35178 ft | 457 kts | 193° |
| 2026-04-21 13:04 | 49.14886 | 7.15898 | 35185 ft | 457 kts | 193° |
| 2026-04-21 13:05 | 49.08492 | 7.15555 | 35181 ft | 463 kts | 181° |
| 2026-04-21 13:05 | 49.02054 | 7.16039 | 35161 ft | 464 kts | 181° |
| 2026-04-21 13:06 | 48.95606 | 7.16525 | 35161 ft | 464 kts | 181° |
| 2026-04-21 13:06 | 48.89153 | 7.16998 | 35159 ft | 464 kts | 181° |
| 2026-04-21 13:07 | 48.82703 | 7.17470 | 35139 ft | 464 kts | 182° |
| 2026-04-21 13:07 | 48.76241 | 7.17953 | 35147 ft | 465 kts | 182° |
| 2026-04-21 13:08 | 48.69779 | 7.18438 | 35158 ft | 465 kts | 182° |
| 2026-04-21 13:08 | 48.63342 | 7.18914 | 35154 ft | 465 kts | 182° |
| 2026-04-21 13:09 | 48.56854 | 7.19387 | 35161 ft | 465 kts | 182° |
| 2026-04-21 13:09 | 48.50390 | 7.19850 | 35160 ft | 465 kts | 182° |
| 2026-04-21 13:10 | 48.44057 | 7.18934 | 35160 ft | 452 kts | 200° |
| 2026-04-21 13:10 | 48.38135 | 7.15939 | 35135 ft | 448 kts | 205° |
| 2026-04-21 13:11 | 48.32249 | 7.12860 | 35147 ft | 448 kts | 205° |
| 2026-04-21 13:11 | 48.26357 | 7.09807 | 35152 ft | 448 kts | 205° |
| 2026-04-21 13:12 | 48.20468 | 7.06754 | 35127 ft | 447 kts | 206° |
| 2026-04-21 13:12 | 48.14590 | 7.03708 | 35140 ft | 447 kts | 206° |
| 2026-04-21 13:13 | 48.08718 | 7.00675 | 35140 ft | 447 kts | 206° |
| 2026-04-21 13:13 | 48.02842 | 6.97647 | 35138 ft | 446 kts | 206° |
| 2026-04-21 13:14 | 47.96981 | 6.94633 | 35116 ft | 445 kts | 206° |
| 2026-04-21 13:14 | 47.91118 | 6.91639 | 35114 ft | 445 kts | 206° |
| 2026-04-21 13:15 | 47.85257 | 6.88641 | 35116 ft | 445 kts | 206° |
| 2026-04-21 13:15 | 47.79408 | 6.85650 | 35076 ft | 444 kts | 207° |
| 2026-04-21 13:16 | 47.73565 | 6.82676 | 35090 ft | 443 kts | 207° |
| 2026-04-21 13:16 | 47.67734 | 6.79717 | 35095 ft | 443 kts | 207° |
| 2026-04-21 13:17 | 47.61910 | 6.76763 | 35094 ft | 442 kts | 207° |
| 2026-04-21 13:17 | 47.56097 | 6.73811 | 35080 ft | 441 kts | 207° |
| 2026-04-21 13:18 | 47.50283 | 6.70878 | 35087 ft | 441 kts | 207° |
| 2026-04-21 13:18 | 47.44481 | 6.67963 | 35089 ft | 441 kts | 207° |
| 2026-04-21 13:19 | 47.39007 | 6.64386 | 35037 ft | 424 kts | 221° |
| 2026-04-21 13:19 | 47.34478 | 6.59028 | 35054 ft | 416 kts | 229° |
| 2026-04-21 13:20 | 47.30071 | 6.53484 | 35094 ft | 419 kts | 228° |
| 2026-04-21 13:20 | 47.27843 | 6.50694 | 35229 ft | 422 kts | 228° |
| 2026-04-21 13:20 | 47.25603 | 6.47895 | 35420 ft | 423 kts | 228° |
| 2026-04-21 13:21 | 47.23356 | 6.45091 | 35618 ft | 424 kts | 228° |
| 2026-04-21 13:21 | 47.21105 | 6.42281 | 35830 ft | 424 kts | 228° |
| 2026-04-21 13:21 | 47.18857 | 6.39473 | 35994 ft | 424 kts | 227° |
| 2026-04-21 13:21 | 47.16608 | 6.36668 | 36220 ft | 424 kts | 227° |
| 2026-04-21 13:22 | 47.14354 | 6.33864 | 36426 ft | 424 kts | 227° |
| 2026-04-21 13:22 | 47.12101 | 6.31066 | 36610 ft | 425 kts | 227° |
| 2026-04-21 13:22 | 47.09832 | 6.28280 | 36800 ft | 427 kts | 224° |
| 2026-04-21 13:22 | 47.07333 | 6.25902 | 36983 ft | 436 kts | 214° |
| 2026-04-21 13:23 | 47.04491 | 6.24154 | 37041 ft | 446 kts | 203° |
| 2026-04-21 13:23 | 47.01420 | 6.23210 | 37037 ft | 456 kts | 191° |
| 2026-04-21 13:23 | 46.95096 | 6.22408 | 37032 ft | 456 kts | 191° |
| 2026-04-21 13:24 | 46.88817 | 6.21586 | 37032 ft | 455 kts | 191° |
| 2026-04-21 13:24 | 46.82466 | 6.20730 | 37033 ft | 455 kts | 191° |
| 2026-04-21 13:25 | 46.76200 | 6.19890 | 37016 ft | 455 kts | 191° |
| 2026-04-21 13:25 | 46.69906 | 6.19056 | 37032 ft | 454 kts | 191° |
| 2026-04-21 13:26 | 46.63613 | 6.18226 | 37041 ft | 454 kts | 191° |
| 2026-04-21 13:26 | 46.57299 | 6.17400 | 37040 ft | 453 kts | 191° |
| 2026-04-21 13:27 | 46.51058 | 6.16574 | 37044 ft | 453 kts | 191° |
| 2026-04-21 13:27 | 46.44743 | 6.15735 | 37042 ft | 453 kts | 191° |
| 2026-04-21 13:28 | 46.38505 | 6.14922 | 37016 ft | 453 kts | 191° |
| 2026-04-21 13:28 | 46.32226 | 6.14107 | 37032 ft | 453 kts | 191° |
| 2026-04-21 13:29 | 46.25957 | 6.13291 | 37032 ft | 452 kts | 192° |
| 2026-04-21 13:29 | 46.19741 | 6.12181 | 37029 ft | 449 kts | 195° |
| 2026-04-21 13:30 | 46.13586 | 6.10704 | 37023 ft | 448 kts | 196° |
| 2026-04-21 13:30 | 46.07439 | 6.09211 | 37005 ft | 448 kts | 195° |
| 2026-04-21 13:31 | 46.01274 | 6.07816 | 37008 ft | 449 kts | 195° |
| 2026-04-21 13:31 | 45.95099 | 6.06485 | 36991 ft | 448 kts | 195° |
| 2026-04-21 13:32 | 45.88941 | 6.05145 | 37003 ft | 448 kts | 195° |
| 2026-04-21 13:32 | 45.82779 | 6.03783 | 37002 ft | 448 kts | 195° |
| 2026-04-21 13:33 | 45.76632 | 6.02419 | 36979 ft | 447 kts | 195° |
| 2026-04-21 13:33 | 45.70483 | 6.01067 | 36985 ft | 447 kts | 195° |
| 2026-04-21 13:34 | 45.64366 | 5.99720 | 36994 ft | 447 kts | 195° |
| 2026-04-21 13:34 | 45.58189 | 5.98370 | 36979 ft | 447 kts | 195° |
| 2026-04-21 13:35 | 45.52047 | 5.97025 | 36981 ft | 446 kts | 195° |
| 2026-04-21 13:35 | 45.45918 | 5.95636 | 36979 ft | 445 kts | 197° |
| 2026-04-21 13:36 | 45.39890 | 5.93824 | 36948 ft | 442 kts | 200° |
| 2026-04-21 13:36 | 45.33906 | 5.91800 | 36954 ft | 443 kts | 200° |
| 2026-04-21 13:37 | 45.27905 | 5.89845 | 36956 ft | 443 kts | 199° |
| 2026-04-21 13:37 | 45.21871 | 5.87983 | 36955 ft | 444 kts | 199° |
| 2026-04-21 13:38 | 45.15834 | 5.86138 | 36962 ft | 443 kts | 199° |
| 2026-04-21 13:38 | 45.09810 | 5.84276 | 36957 ft | 443 kts | 199° |
| 2026-04-21 13:39 | 45.03841 | 5.82424 | 36924 ft | 443 kts | 199° |
| 2026-04-21 13:39 | 44.97774 | 5.80553 | 36932 ft | 443 kts | 199° |
| 2026-04-21 13:40 | 44.91763 | 5.78704 | 36930 ft | 442 kts | 199° |
| 2026-04-21 13:40 | 44.85755 | 5.76851 | 36935 ft | 442 kts | 199° |
| 2026-04-21 13:41 | 44.79790 | 5.75028 | 36917 ft | 442 kts | 199° |
| 2026-04-21 13:41 | 44.73784 | 5.73195 | 36927 ft | 442 kts | 199° |
| 2026-04-21 13:42 | 44.67778 | 5.71363 | 36935 ft | 441 kts | 199° |
| 2026-04-21 13:42 | 44.61780 | 5.69542 | 36906 ft | 441 kts | 199° |
| 2026-04-21 13:43 | 44.55782 | 5.67728 | 36904 ft | 441 kts | 199° |
| 2026-04-21 13:43 | 44.49786 | 5.65902 | 36897 ft | 441 kts | 199° |
| 2026-04-21 13:44 | 44.43789 | 5.64090 | 36879 ft | 441 kts | 199° |
| 2026-04-21 13:44 | 44.37806 | 5.62173 | 36895 ft | 437 kts | 205° |
| 2026-04-21 13:45 | 44.32189 | 5.59164 | 36898 ft | 432 kts | 208° |
| 2026-04-21 13:45 | 44.27528 | 5.56604 | 36873 ft | 432 kts | 208° |
| 2026-04-21 13:46 | 44.21926 | 5.53537 | 36889 ft | 432 kts | 208° |
| 2026-04-21 13:46 | 44.16325 | 5.50481 | 36892 ft | 432 kts | 208° |
| 2026-04-21 13:47 | 44.10716 | 5.47436 | 36904 ft | 432 kts | 208° |
| 2026-04-21 13:47 | 44.05119 | 5.44393 | 36898 ft | 432 kts | 208° |
| 2026-04-21 13:48 | 43.99525 | 5.41359 | 36896 ft | 431 kts | 208° |
| 2026-04-21 13:48 | 43.93941 | 5.38329 | 36907 ft | 431 kts | 208° |
| 2026-04-21 13:49 | 43.88356 | 5.35306 | 36875 ft | 430 kts | 208° |
| 2026-04-21 13:49 | 43.82784 | 5.32300 | 36890 ft | 429 kts | 208° |
| 2026-04-21 13:50 | 43.77224 | 5.29300 | 36903 ft | 428 kts | 208° |
| 2026-04-21 13:50 | 43.71676 | 5.26310 | 36904 ft | 428 kts | 208° |
| 2026-04-21 13:51 | 43.66129 | 5.23341 | 36892 ft | 427 kts | 207° |
| 2026-04-21 13:51 | 43.60588 | 5.20381 | 36896 ft | 427 kts | 207° |
| 2026-04-21 13:52 | 43.55053 | 5.17424 | 36895 ft | 426 kts | 207° |
| 2026-04-21 13:52 | 43.49518 | 5.14475 | 36883 ft | 426 kts | 207° |
| 2026-04-21 13:53 | 43.43991 | 5.11535 | 36885 ft | 426 kts | 207° |
| 2026-04-21 13:53 | 43.38542 | 5.08428 | 36887 ft | 420 kts | 215° |
| 2026-04-21 13:54 | 43.33720 | 5.04058 | 36890 ft | 414 kts | 220° |
| 2026-04-21 13:54 | 43.29005 | 4.99604 | 36879 ft | 414 kts | 220° |
| 2026-04-21 13:55 | 43.24251 | 4.95130 | 36884 ft | 414 kts | 220° |
| 2026-04-21 13:55 | 43.19497 | 4.90668 | 36897 ft | 414 kts | 220° |
| 2026-04-21 13:56 | 43.14707 | 4.86186 | 36909 ft | 414 kts | 220° |
| 2026-04-21 13:56 | 43.09987 | 4.81774 | 36899 ft | 414 kts | 220° |
| 2026-04-21 13:57 | 43.05205 | 4.77378 | 36909 ft | 416 kts | 215° |
| 2026-04-21 13:57 | 43.00130 | 4.73514 | 36917 ft | 417 kts | 214° |
| 2026-04-21 13:58 | 42.95050 | 4.69673 | 36923 ft | 417 kts | 214° |
| 2026-04-21 13:58 | 42.89969 | 4.65828 | 36913 ft | 417 kts | 214° |
| 2026-04-21 13:59 | 42.84893 | 4.61985 | 36919 ft | 417 kts | 214° |
| 2026-04-21 13:59 | 42.79815 | 4.58149 | 36924 ft | 417 kts | 214° |
| 2026-04-21 14:00 | 42.74731 | 4.54329 | 36937 ft | 417 kts | 214° |
| 2026-04-21 14:00 | 42.69647 | 4.50517 | 36947 ft | 417 kts | 214° |
| 2026-04-21 14:01 | 42.64573 | 4.46708 | 36950 ft | 417 kts | 214° |
| 2026-04-21 14:01 | 42.59500 | 4.42915 | 36953 ft | 416 kts | 214° |
| 2026-04-21 14:02 | 42.54424 | 4.39117 | 36948 ft | 416 kts | 214° |
| 2026-04-21 14:03 | 42.46810 | 4.33445 | 36937 ft | 416 kts | 214° |
| 2026-04-21 14:03 | 42.41726 | 4.29676 | 36941 ft | 416 kts | 214° |
| 2026-04-21 14:04 | 42.36648 | 4.25904 | 36942 ft | 416 kts | 214° |
| 2026-04-21 14:04 | 42.31567 | 4.22137 | 36929 ft | 416 kts | 213° |
| 2026-04-21 14:05 | 42.26486 | 4.18384 | 36928 ft | 416 kts | 213° |
| 2026-04-21 14:05 | 42.21411 | 4.14637 | 36937 ft | 416 kts | 213° |
| 2026-04-21 14:06 | 42.16336 | 4.10906 | 36941 ft | 416 kts | 213° |
| 2026-04-21 14:06 | 42.11259 | 4.07178 | 36939 ft | 416 kts | 213° |
| 2026-04-21 14:07 | 42.06176 | 4.03451 | 36944 ft | 416 kts | 213° |
| 2026-04-21 14:07 | 42.01100 | 3.99736 | 36945 ft | 416 kts | 213° |
| 2026-04-21 14:08 | 41.96052 | 3.96059 | 36948 ft | 415 kts | 213° |
| 2026-04-21 14:08 | 41.90704 | 3.93017 | 36931 ft | 424 kts | 198° |
| 2026-04-21 14:09 | 41.84867 | 3.91613 | 36939 ft | 427 kts | 194° |
| 2026-04-21 14:09 | 41.79012 | 3.90282 | 36944 ft | 427 kts | 194° |
| 2026-04-21 14:10 | 41.73164 | 3.88932 | 36942 ft | 427 kts | 194° |
| 2026-04-21 14:10 | 41.67308 | 3.87579 | 36937 ft | 427 kts | 194° |
| 2026-04-21 14:11 | 41.61447 | 3.86228 | 36942 ft | 427 kts | 194° |
| 2026-04-21 14:11 | 41.55638 | 3.84890 | 36946 ft | 427 kts | 194° |
| 2026-04-21 14:12 | 41.49735 | 3.83543 | 36929 ft | 427 kts | 194° |
| 2026-04-21 14:12 | 41.43879 | 3.82206 | 36939 ft | 427 kts | 194° |
| 2026-04-21 14:13 | 41.38018 | 3.80861 | 36951 ft | 427 kts | 194° |
| 2026-04-21 14:13 | 41.32161 | 3.79523 | 36953 ft | 427 kts | 194° |
| 2026-04-21 14:14 | 41.26300 | 3.78188 | 36946 ft | 427 kts | 194° |
| 2026-04-21 14:14 | 41.20449 | 3.76853 | 36952 ft | 427 kts | 194° |
| 2026-04-21 14:15 | 41.14639 | 3.75314 | 36836 ft | 424 kts | 202° |
| 2026-04-21 14:15 | 41.11879 | 3.73961 | 36360 ft | 421 kts | 206° |
| 2026-04-21 14:15 | 41.09154 | 3.72542 | 35893 ft | 421 kts | 206° |
| 2026-04-21 14:15 | 41.06436 | 3.71124 | 35422 ft | 419 kts | 206° |
| 2026-04-21 14:16 | 41.03734 | 3.69721 | 34966 ft | 416 kts | 205° |
| 2026-04-21 14:16 | 41.01048 | 3.68334 | 34530 ft | 413 kts | 205° |
| 2026-04-21 14:16 | 40.98376 | 3.66961 | 34098 ft | 411 kts | 205° |
| 2026-04-21 14:16 | 40.95717 | 3.65602 | 33573 ft | 408 kts | 205° |
| 2026-04-21 14:17 | 40.93081 | 3.64258 | 33108 ft | 404 kts | 205° |
| 2026-04-21 14:17 | 40.90473 | 3.62924 | 32627 ft | 400 kts | 205° |
| 2026-04-21 14:17 | 40.87892 | 3.61603 | 32155 ft | 397 kts | 205° |
| 2026-04-21 14:17 | 40.85324 | 3.60292 | 31675 ft | 393 kts | 205° |
| 2026-04-21 14:18 | 40.82782 | 3.58993 | 31196 ft | 390 kts | 205° |
| 2026-04-21 14:18 | 40.80259 | 3.57702 | 30732 ft | 388 kts | 205° |
| 2026-04-21 14:18 | 40.77753 | 3.56420 | 30276 ft | 385 kts | 205° |
| 2026-04-21 14:18 | 40.75269 | 3.55152 | 29791 ft | 382 kts | 205° |
| 2026-04-21 14:19 | 40.72794 | 3.53894 | 29263 ft | 379 kts | 205° |
| 2026-04-21 14:19 | 40.70341 | 3.52646 | 28747 ft | 376 kts | 205° |
| 2026-04-21 14:19 | 40.67908 | 3.51409 | 28245 ft | 374 kts | 205° |
| 2026-04-21 14:19 | 40.65489 | 3.50178 | 27755 ft | 371 kts | 205° |
| 2026-04-21 14:20 | 40.63091 | 3.48959 | 27265 ft | 369 kts | 205° |
| 2026-04-21 14:20 | 40.60732 | 3.47758 | 26788 ft | 367 kts | 205° |
| 2026-04-21 14:20 | 40.58330 | 3.46531 | 26317 ft | 365 kts | 205° |
| 2026-04-21 14:20 | 40.56004 | 3.45345 | 25859 ft | 363 kts | 205° |
| 2026-04-21 14:21 | 40.53640 | 3.44143 | 25400 ft | 360 kts | 205° |
| 2026-04-21 14:21 | 40.51365 | 3.42995 | 24974 ft | 359 kts | 205° |
| 2026-04-21 14:21 | 40.49015 | 3.41813 | 24526 ft | 357 kts | 205° |
| 2026-04-21 14:21 | 40.46705 | 3.40650 | 24095 ft | 355 kts | 205° |
| 2026-04-21 14:22 | 40.44340 | 3.39707 | 23668 ft | 357 kts | 194° |
| 2026-04-21 14:22 | 40.41865 | 3.39381 | 23187 ft | 359 kts | 183° |
| 2026-04-21 14:22 | 40.39369 | 3.39514 | 22722 ft | 358 kts | 181° |
| 2026-04-21 14:22 | 40.36887 | 3.39663 | 22287 ft | 356 kts | 181° |
| 2026-04-21 14:23 | 40.34424 | 3.39808 | 21864 ft | 353 kts | 181° |
| 2026-04-21 14:23 | 40.31978 | 3.39947 | 21450 ft | 351 kts | 181° |
| 2026-04-21 14:23 | 40.29555 | 3.40079 | 21042 ft | 348 kts | 181° |
| 2026-04-21 14:23 | 40.27150 | 3.40211 | 20642 ft | 346 kts | 181° |
| 2026-04-21 14:24 | 40.24753 | 3.40350 | 20247 ft | 343 kts | 180° |
| 2026-04-21 14:24 | 40.22373 | 3.40488 | 19860 ft | 341 kts | 180° |
| 2026-04-21 14:24 | 40.20008 | 3.40622 | 19477 ft | 339 kts | 180° |
| 2026-04-21 14:24 | 40.17658 | 3.40751 | 19107 ft | 337 kts | 180° |
| 2026-04-21 14:25 | 40.15321 | 3.40884 | 18750 ft | 335 kts | 180° |
| 2026-04-21 14:25 | 40.12998 | 3.41018 | 18396 ft | 333 kts | 180° |
| 2026-04-21 14:25 | 40.10690 | 3.41150 | 18024 ft | 331 kts | 180° |
| 2026-04-21 14:25 | 40.08391 | 3.41279 | 17634 ft | 330 kts | 180° |
| 2026-04-21 14:26 | 40.06106 | 3.41406 | 17246 ft | 328 kts | 180° |
| 2026-04-21 14:26 | 40.03832 | 3.41532 | 16876 ft | 326 kts | 180° |
| 2026-04-21 14:26 | 40.01576 | 3.41659 | 16545 ft | 324 kts | 180° |
| 2026-04-21 14:26 | 39.99332 | 3.41784 | 16202 ft | 322 kts | 180° |
| 2026-04-21 14:27 | 39.97102 | 3.41906 | 15763 ft | 319 kts | 180° |
| 2026-04-21 14:27 | 39.94890 | 3.42027 | 15248 ft | 317 kts | 180° |
| 2026-04-21 14:27 | 39.92696 | 3.42149 | 14747 ft | 315 kts | 180° |
| 2026-04-21 14:27 | 39.90509 | 3.42274 | 14251 ft | 313 kts | 179° |
| 2026-04-21 14:28 | 39.88364 | 3.42396 | 13774 ft | 312 kts | 179° |
| 2026-04-21 14:28 | 39.86182 | 3.42518 | 13160 ft | 309 kts | 179° |
| 2026-04-21 14:28 | 39.84045 | 3.42635 | 12537 ft | 306 kts | 179° |
| 2026-04-21 14:28 | 39.81930 | 3.42748 | 11934 ft | 303 kts | 179° |
| 2026-04-21 14:29 | 39.79862 | 3.42862 | 11352 ft | 300 kts | 179° |
| 2026-04-21 14:29 | 39.77787 | 3.42980 | 10766 ft | 297 kts | 179° |
| 2026-04-21 14:29 | 39.75725 | 3.43094 | 10312 ft | 297 kts | 179° |
| 2026-04-21 14:29 | 39.73686 | 3.42933 | 9993 ft | 291 kts | 196° |
| 2026-04-21 14:30 | 39.71891 | 3.41815 | 9662 ft | 286 kts | 220° |
| 2026-04-21 14:30 | 39.70608 | 3.39890 | 9293 ft | 282 kts | 243° |
| 2026-04-21 14:30 | 39.70014 | 3.37499 | 8904 ft | 279 kts | 265° |
| 2026-04-21 14:30 | 39.70050 | 3.35018 | 8653 ft | 273 kts | 272° |
| 2026-04-21 14:31 | 39.70137 | 3.32557 | 8264 ft | 273 kts | 272° |
| 2026-04-21 14:31 | 39.70216 | 3.30085 | 7854 ft | 274 kts | 272° |
| 2026-04-21 14:31 | 39.70289 | 3.27615 | 7479 ft | 274 kts | 271° |
| 2026-04-21 14:31 | 39.70360 | 3.25156 | 7138 ft | 271 kts | 271° |
| 2026-04-21 14:32 | 39.70408 | 3.23505 | 6912 ft | 270 kts | 271° |
| 2026-04-21 14:32 | 39.70482 | 3.21081 | 6619 ft | 267 kts | 271° |
| 2026-04-21 14:32 | 39.70554 | 3.18694 | 6357 ft | 262 kts | 271° |
| 2026-04-21 14:32 | 39.70623 | 3.16348 | 6081 ft | 258 kts | 271° |
| 2026-04-21 14:33 | 39.70693 | 3.14042 | 5805 ft | 253 kts | 271° |
| 2026-04-21 14:33 | 39.70763 | 3.11775 | 5536 ft | 249 kts | 271° |
| 2026-04-21 14:33 | 39.70779 | 3.09581 | 5268 ft | 244 kts | 261° |
| 2026-04-21 14:33 | 39.70267 | 3.07513 | 5027 ft | 239 kts | 239° |
| 2026-04-21 14:34 | 39.69409 | 3.05669 | 4826 ft | 237 kts | 237° |
| 2026-04-21 14:34 | 39.68561 | 3.03864 | 4707 ft | 231 kts | 237° |
| 2026-04-21 14:34 | 39.67733 | 3.02095 | 4472 ft | 229 kts | 237° |
| 2026-04-21 14:34 | 39.66904 | 3.00326 | 4186 ft | 229 kts | 237° |
| 2026-04-21 14:35 | 39.66071 | 2.98550 | 3880 ft | 231 kts | 237° |
| 2026-04-21 14:35 | 39.65234 | 2.96766 | 3574 ft | 234 kts | 237° |
| 2026-04-21 14:35 | 39.64395 | 2.94978 | 3281 ft | 233 kts | 238° |
| 2026-04-21 14:35 | 39.63560 | 2.93199 | 2976 ft | 223 kts | 238° |
| 2026-04-21 14:36 | 39.62768 | 2.91512 | 2698 ft | 214 kts | 238° |
| 2026-04-21 14:36 | 39.62010 | 2.89899 | 2431 ft | 205 kts | 238° |
| 2026-04-21 14:36 | 39.61289 | 2.88365 | 2152 ft | 194 kts | 237° |
| 2026-04-21 14:36 | 39.60614 | 2.86929 | 1903 ft | 179 kts | 237° |
| 2026-04-21 14:37 | 39.59988 | 2.85600 | 1698 ft | 169 kts | 237° |
| 2026-04-21 14:37 | 39.59384 | 2.84318 | 1459 ft | 165 kts | 236° |
| 2026-04-21 14:37 | 39.58794 | 2.83066 | 1243 ft | 156 kts | 236° |
| 2026-04-21 14:37 | 39.58258 | 2.81926 | 1054 ft | 142 kts | 235° |
| 2026-04-21 14:38 | 39.57753 | 2.80856 | 877 ft | 138 kts | 235° |
| 2026-04-21 14:38 | 39.57255 | 2.79807 | 670 ft | 135 kts | 237° |
| 2026-04-21 14:38 | 39.56768 | 2.78773 | 526 ft | 133 kts | 238° |
| 2026-04-21 14:38 | 39.56288 | 2.77751 | 345 ft | 133 kts | 238° |
| 2026-04-21 14:39 | 39.55805 | 2.76729 | 182 ft | 132 kts | 239° |
| 2026-04-21 14:39 | 39.55327 | 2.75718 | 45 ft | 128 kts | 238° |
| 2026-04-21 14:39 | 39.54929 | 2.74874 | 37 ft | 79 kts | 239° |
| 2026-04-21 14:39 | 39.54743 | 2.74476 | 36 ft | 42 kts | 238° |
| 2026-04-21 14:40 | 39.54609 | 2.74191 | 38 ft | 31 kts | 239° |
| 2026-04-21 14:40 | 39.54558 | 2.74005 | 38 ft | 19 kts | 263° |
| 2026-04-21 14:40 | 39.54550 | 2.73832 | 38 ft | 19 kts | 270° |
| 2026-04-21 14:40 | 39.54576 | 2.73742 | 37 ft | 10 kts | 343° |
| 2026-04-21 14:41 | 39.54627 | 2.73786 | 38 ft | 9 kts | 54° |
| 2026-04-21 14:41 | 39.54657 | 2.73847 | 38 ft | 8 kts | 58° |
| 2026-04-21 14:41 | 39.54683 | 2.73901 | 38 ft | 6 kts | 58° |
| 2026-04-21 14:41 | 39.54715 | 2.73969 | 38 ft | 11 kts | 58° |
| 2026-04-21 14:42 | 39.54764 | 2.74073 | 38 ft | 16 kts | 58° |
| 2026-04-21 14:42 | 39.54847 | 2.74108 | 37 ft | 13 kts | 333° |
| 2026-04-21 14:42 | 39.54925 | 2.74048 | 36 ft | 13 kts | 329° |
| 2026-04-21 14:42 | 39.55012 | 2.73980 | 38 ft | 18 kts | 328° |
| 2026-04-21 14:43 | 39.55123 | 2.73892 | 38 ft | 18 kts | 329° |
| 2026-04-21 14:43 | 39.55182 | 2.73826 | 38 ft | 8 kts | 268° |
| 2026-04-21 14:43 | 39.55172 | 2.73751 | 38 ft | 10 kts | 296° |
| 2026-04-21 14:43 | 39.55166 | 2.73667 | 36 ft | 11 kts | 238° |
| 2026-04-21 14:44 | 39.55122 | 2.73573 | 38 ft | 13 kts | 239° |
| 2026-04-21 14:44 | 39.55074 | 2.73470 | 38 ft | 12 kts | 239° |
| 2026-04-21 14:44 | 39.55029 | 2.73429 | 38 ft | 7 kts | 169° |
| 2026-04-21 14:44 | 39.55008 | 2.73438 | 38 ft | 2 kts | 163° |
| 2026-04-21 14:45 | 39.55000 | 2.73440 | 38 ft | 0 kts | 163° |